createdAt,value
2022-09-16T00:01:56.766Z,22.18
2022-09-16T00:04:24.015Z,22.28
2022-09-16T00:06:51.178Z,22.36
2022-09-16T00:09:18.369Z,22.30
2022-09-16T00:11:45.610Z,22.25
2022-09-16T00:14:12.817Z,22.23
2022-09-16T00:16:40.189Z,22.22
2022-09-16T00:19:08.886Z,22.21
2022-09-16T00:21:36.114Z,22.07
2022-09-16T00:24:03.339Z,21.95
2022-09-16T00:26:30.941Z,21.79
2022-09-16T00:28:58.140Z,21.75
2022-09-16T00:31:25.427Z,21.78
2022-09-16T00:33:52.665Z,21.69
2022-09-16T00:36:20.311Z,21.65
2022-09-16T00:39:21.211Z,21.71
2022-09-16T00:41:48.532Z,21.79
2022-09-16T00:44:34.487Z,21.91
2022-09-16T00:47:01.769Z,21.92
2022-09-16T00:49:30.555Z,21.86
2022-09-16T00:52:00.145Z,21.76
2022-09-16T00:54:27.963Z,21.68
2022-09-16T00:56:57.805Z,21.62
2022-09-16T00:59:30.072Z,21.51
2022-09-16T01:02:01.395Z,21.52
2022-09-16T01:04:35.426Z,21.50
2022-09-16T01:07:03.346Z,21.45
2022-09-16T01:09:31.022Z,21.28
2022-09-16T01:11:58.251Z,21.22
2022-09-16T01:14:46.352Z,21.18
2022-09-16T01:17:23.865Z,21.25
2022-09-16T01:20:09.381Z,21.36
2022-09-16T01:22:36.549Z,21.39
2022-09-16T01:25:27.043Z,21.48
2022-09-16T01:28:06.460Z,21.64
2022-09-16T01:30:36.702Z,21.63
2022-09-16T01:33:05.028Z,21.59
2022-09-16T01:35:35.459Z,21.34
2022-09-16T01:38:02.649Z,21.48
2022-09-16T01:40:42.130Z,21.56
2022-09-16T01:43:12.133Z,21.70
2022-09-16T01:45:48.810Z,21.54
2022-09-16T01:48:34.691Z,21.37
2022-09-16T01:51:04.905Z,21.29
2022-09-16T01:53:39.274Z,21.28
2022-09-16T01:56:09.680Z,21.17
2022-09-16T01:58:43.550Z,21.15
2022-09-16T02:01:14.195Z,21.19
2022-09-16T02:03:44.621Z,21.25
2022-09-16T02:06:17.852Z,21.18
2022-09-16T02:08:53.720Z,21.09
2022-09-16T02:11:21.715Z,20.99
2022-09-16T02:14:06.826Z,21.06
2022-09-16T02:16:46.613Z,21.02
2022-09-16T02:19:17.647Z,20.91
2022-09-16T02:21:46.287Z,20.86
2022-09-16T02:24:17.745Z,20.81
2022-09-16T02:26:47.961Z,20.72
2022-09-16T02:29:19.453Z,20.71
2022-09-16T02:31:47.359Z,20.68
2022-09-16T02:34:16.721Z,20.31
2022-09-16T02:36:45.707Z,20.20
2022-09-16T02:39:20.331Z,20.32
2022-09-16T02:41:48.632Z,20.42
2022-09-16T02:44:16.072Z,20.54
2022-09-16T02:46:55.618Z,20.67
2022-09-16T02:49:43.079Z,20.67
2022-09-16T02:52:28.312Z,20.70
2022-09-16T02:54:58.188Z,20.68
2022-09-16T02:57:25.393Z,20.67
2022-09-16T02:59:53.485Z,20.62
2022-09-16T03:02:21.315Z,20.58
2022-09-16T03:04:49.043Z,20.56
2022-09-16T03:07:16.696Z,20.56
2022-09-16T03:09:44.490Z,20.50
2022-09-16T03:12:17.650Z,20.46
2022-09-16T03:14:51.032Z,20.50
2022-09-16T03:17:38.845Z,20.62
2022-09-16T03:20:24.557Z,20.60
2022-09-16T03:22:51.676Z,20.39
2022-09-16T03:25:27.372Z,19.97
2022-09-16T03:28:13.071Z,19.86
2022-09-16T03:30:48.579Z,20.03
2022-09-16T03:33:21.849Z,20.11
2022-09-16T03:35:50.479Z,20.10
2022-09-16T03:38:19.248Z,20.01
2022-09-16T03:40:47.230Z,19.97
2022-09-16T03:43:16.107Z,20.00
2022-09-16T03:45:43.838Z,20.02
2022-09-16T03:48:11.895Z,20.08
2022-09-16T03:50:39.145Z,20.06
2022-09-16T03:53:06.327Z,19.96
2022-09-16T03:55:33.597Z,19.96
2022-09-16T03:58:00.727Z,19.95
2022-09-16T04:00:29.197Z,19.98
2022-09-16T04:02:56.528Z,20.12
2022-09-16T04:05:23.829Z,20.07
2022-09-16T04:07:51.156Z,19.97
2022-09-16T04:10:18.887Z,19.92
2022-09-16T04:12:46.133Z,20.02
2022-09-16T04:15:13.280Z,20.04
2022-09-16T04:17:40.501Z,20.08
2022-09-16T04:20:08.379Z,20.06
2022-09-16T04:22:35.673Z,20.08
2022-09-16T04:25:03.817Z,20.15
2022-09-16T04:27:30.999Z,20.26
2022-09-16T04:29:58.859Z,20.32
2022-09-16T04:32:25.980Z,20.46
2022-09-16T04:34:53.119Z,20.52
2022-09-16T04:37:20.289Z,20.52
2022-09-16T04:39:47.869Z,20.48
2022-09-16T04:42:15.194Z,20.51
2022-09-16T04:44:42.457Z,20.40
2022-09-16T04:47:09.643Z,20.28
2022-09-16T04:49:36.860Z,20.29
2022-09-16T04:52:04.022Z,20.17
2022-09-16T04:54:31.258Z,20.05
2022-09-16T04:56:58.446Z,20.07
2022-09-16T04:59:25.627Z,20.06
2022-09-16T05:01:53.134Z,20.00
2022-09-16T05:04:20.419Z,20.01
2022-09-16T05:06:47.657Z,19.98
2022-09-16T05:09:15.112Z,20.01
2022-09-16T05:11:42.344Z,20.07
2022-09-16T05:14:14.171Z,20.15
2022-09-16T05:16:41.758Z,20.26
2022-09-16T05:19:10.858Z,20.25
2022-09-16T05:21:38.225Z,20.22
2022-09-16T05:24:08.685Z,20.20
2022-09-16T05:26:36.905Z,20.22
2022-09-16T05:29:05.890Z,20.24
2022-09-16T05:31:35.121Z,20.40
2022-09-16T05:34:03.998Z,20.44
2022-09-16T05:36:32.608Z,20.57
2022-09-16T05:39:21.680Z,20.57
2022-09-16T05:41:54.337Z,20.61
2022-09-16T05:44:21.507Z,20.58
2022-09-16T05:46:48.715Z,20.62
2022-09-16T05:49:20.711Z,20.66
2022-09-16T05:51:48.704Z,20.77
2022-09-16T05:54:18.589Z,20.89
2022-09-16T05:56:46.778Z,20.93
2022-09-16T05:59:14.665Z,20.74
2022-09-16T06:01:41.980Z,20.70
2022-09-16T06:04:11.309Z,20.85
2022-09-16T06:06:39.679Z,21.00
2022-09-16T06:09:11.688Z,21.18
2022-09-16T06:11:40.822Z,21.05
2022-09-16T06:14:08.617Z,21.02
2022-09-16T06:16:36.221Z,21.04
2022-09-16T06:19:05.244Z,21.22
2022-09-16T06:21:32.515Z,21.30
2022-09-16T06:23:59.750Z,21.32
2022-09-16T06:26:27.591Z,21.45
2022-09-16T06:28:55.687Z,21.61
2022-09-16T06:31:24.286Z,21.69
2022-09-16T06:33:52.096Z,21.77
2022-09-16T06:36:20.166Z,21.81
2022-09-16T06:38:47.951Z,21.69
2022-09-16T06:41:16.245Z,21.78
2022-09-16T06:43:44.171Z,21.83
2022-09-16T06:46:19.213Z,21.91
2022-09-16T06:48:47.482Z,21.99
2022-09-16T06:51:16.549Z,22.09
2022-09-16T06:53:44.333Z,22.19
2022-09-16T06:56:13.470Z,22.22
2022-09-16T06:58:42.265Z,22.28
2022-09-16T07:01:11.040Z,22.31
2022-09-16T07:03:39.424Z,22.33
2022-09-16T07:06:07.248Z,22.19
2022-09-16T07:08:35.430Z,22.13
2022-09-16T07:11:04.152Z,22.22
2022-09-16T07:13:31.287Z,22.48
2022-09-16T07:16:14.194Z,22.63
2022-09-16T07:18:42.034Z,22.69
2022-09-16T07:21:12.332Z,22.80
2022-09-16T07:23:40.157Z,22.97
2022-09-16T07:26:07.366Z,23.01
2022-09-16T07:28:34.783Z,23.02
2022-09-16T07:31:02.924Z,23.15
2022-09-16T07:33:30.828Z,23.26
2022-09-16T07:35:59.221Z,23.13
2022-09-16T07:38:26.951Z,23.12
2022-09-16T07:40:54.183Z,23.11
2022-09-16T07:43:21.704Z,23.09
2022-09-16T07:45:55.544Z,23.03
2022-09-16T07:48:22.878Z,23.17
2022-09-16T07:50:57.403Z,23.25
2022-09-16T07:53:28.970Z,23.27
2022-09-16T07:56:00.864Z,23.38
2022-09-16T07:58:28.055Z,23.48
2022-09-16T08:00:55.312Z,23.47
2022-09-16T08:03:22.673Z,23.56
2022-09-16T08:05:49.880Z,23.49
2022-09-16T08:08:17.130Z,23.47
2022-09-16T08:10:52.396Z,23.55
2022-09-16T08:13:19.605Z,23.61
2022-09-16T08:15:46.873Z,23.81
2022-09-16T08:18:14.360Z,23.72
2022-09-16T08:20:41.575Z,23.89
2022-09-16T08:23:08.903Z,23.92
2022-09-16T08:25:36.480Z,24.07
2022-09-16T08:28:04.382Z,24.17
2022-09-16T08:30:31.654Z,24.42
2022-09-16T08:32:59.472Z,24.61
2022-09-16T08:35:26.871Z,24.87
2022-09-16T08:37:54.113Z,24.91
2022-09-16T08:40:23.425Z,25.19
2022-09-16T08:43:03.966Z,25.27
2022-09-16T08:46:26.456Z,25.25
2022-09-16T08:51:47.010Z,25.69
2022-09-16T08:54:27.373Z,25.82
2022-09-16T08:56:57.854Z,26.20
2022-09-16T08:59:27.746Z,27.15
2022-09-16T09:02:17.309Z,26.98
2022-09-16T09:04:44.964Z,26.79
2022-09-16T09:07:18.239Z,27.36
2022-09-16T09:10:15.266Z,28.12
2022-09-16T09:13:09.765Z,28.22
2022-09-16T09:15:41.988Z,27.98
2022-09-16T09:18:18.136Z,27.12
2022-09-16T09:21:04.145Z,26.96
2022-09-16T09:23:52.356Z,26.45
2022-09-16T09:26:22.524Z,26.12
2022-09-16T09:29:01.317Z,26.34
2022-09-16T09:31:47.770Z,26.32
2022-09-16T09:34:24.265Z,26.34
2022-09-16T09:36:57.677Z,26.19
2022-09-16T09:39:31.086Z,25.80
2022-09-16T09:42:04.215Z,25.96
2022-09-16T09:44:31.417Z,26.02
2022-09-16T09:47:01.796Z,26.11
2022-09-16T09:49:31.883Z,26.07
2022-09-16T09:52:11.909Z,26.13
2022-09-16T09:54:41.445Z,26.26
2022-09-16T09:57:14.313Z,26.41
2022-09-16T09:59:50.396Z,26.38
2022-09-16T10:02:19.834Z,26.37
2022-09-16T10:04:47.508Z,26.38
2022-09-16T10:07:17.507Z,26.40
2022-09-16T10:09:47.484Z,26.40
2022-09-16T10:12:14.734Z,26.36
2022-09-16T10:14:41.980Z,26.39
2022-09-16T10:17:16.059Z,26.36
2022-09-16T10:19:57.800Z,26.39
2022-09-16T10:22:32.790Z,26.42
2022-09-16T10:25:01.882Z,26.36
2022-09-16T10:27:36.499Z,26.36
2022-09-16T10:30:15.424Z,26.16
2022-09-16T10:32:48.053Z,26.14
2022-09-16T10:35:38.535Z,26.27
2022-09-16T10:38:16.687Z,26.25
2022-09-16T10:40:54.111Z,26.33
2022-09-16T10:43:24.239Z,26.48
2022-09-16T10:45:52.880Z,26.59
2022-09-16T10:48:21.952Z,26.68
2022-09-16T10:50:55.093Z,26.65
2022-09-16T10:53:39.090Z,26.62
2022-09-16T10:56:29.397Z,26.57
2022-09-16T10:59:09.784Z,26.58
2022-09-16T11:01:56.279Z,26.44
2022-09-16T11:04:42.493Z,26.36
2022-09-16T11:07:28.450Z,26.38
2022-09-16T11:09:55.684Z,26.32
2022-09-16T11:12:34.920Z,26.52
2022-09-16T11:15:22.823Z,26.52
2022-09-16T11:17:50.025Z,26.49
2022-09-16T11:20:17.308Z,26.50
2022-09-16T11:22:56.364Z,26.40
2022-09-16T11:25:32.913Z,26.39
2022-09-16T11:28:09.647Z,26.33
2022-09-16T11:30:40.592Z,26.30
2022-09-16T11:33:17.398Z,26.32
2022-09-16T11:36:04.054Z,26.35
2022-09-16T11:38:43.827Z,26.32
2022-09-16T11:41:23.373Z,26.32
2022-09-16T11:44:00.174Z,26.28
2022-09-16T11:46:27.621Z,26.26
2022-09-16T11:49:04.041Z,26.22
2022-09-16T11:51:50.271Z,26.27
2022-09-16T11:54:36.674Z,26.33
2022-09-16T11:57:08.929Z,26.31
2022-09-16T11:59:48.798Z,26.25
2022-09-16T12:02:15.980Z,26.16
2022-09-16T12:04:57.428Z,26.12
2022-09-16T12:07:31.189Z,26.09
2022-09-16T12:10:08.193Z,26.10
2022-09-16T12:12:38.542Z,26.03
2022-09-16T12:15:09.998Z,26.08
2022-09-16T12:17:41.050Z,26.14
2022-09-16T12:20:17.208Z,26.17
2022-09-16T12:22:44.447Z,26.28
2022-09-16T12:25:34.372Z,26.36
2022-09-16T12:28:04.923Z,26.45
2022-09-16T12:30:44.461Z,26.48
2022-09-16T12:33:18.428Z,26.55
2022-09-16T12:36:00.165Z,26.58
2022-09-16T12:38:27.468Z,26.65
2022-09-16T12:41:06.785Z,26.74
2022-09-16T12:43:43.025Z,26.79
2022-09-16T12:46:10.290Z,26.72
2022-09-16T12:48:37.522Z,26.79
2022-09-16T12:51:19.969Z,26.82
2022-09-16T12:54:02.555Z,26.83
2022-09-16T12:56:39.585Z,26.81
2022-09-16T12:59:16.174Z,26.75
2022-09-16T13:01:46.069Z,26.77
2022-09-16T13:04:27.781Z,26.80
2022-09-16T13:06:56.540Z,26.81
2022-09-16T13:09:23.917Z,26.86
2022-09-16T13:12:31.879Z,26.90
2022-09-16T13:14:44.488Z,26.89
2022-09-16T13:17:12.425Z,26.84
2022-09-16T13:19:44.527Z,26.77
2022-09-16T13:22:11.775Z,26.72
2022-09-16T13:24:40.474Z,26.75
2022-09-16T13:27:26.808Z,26.76
2022-09-16T13:30:05.743Z,26.77
2022-09-16T13:32:38.788Z,26.84
2022-09-16T13:35:21.832Z,26.94
2022-09-16T13:37:50.766Z,26.91
2022-09-16T13:40:21.652Z,26.90
2022-09-16T13:42:48.832Z,26.93
2022-09-16T13:45:34.752Z,26.88
2022-09-16T13:48:09.237Z,26.91
2022-09-16T13:50:37.154Z,26.97
2022-09-16T13:53:24.739Z,26.98
2022-09-16T13:55:53.377Z,26.95
2022-09-16T13:58:28.416Z,26.92
2022-09-16T14:01:12.148Z,26.92
2022-09-16T14:03:39.283Z,26.93
2022-09-16T14:06:09.468Z,26.97
2022-09-16T14:08:44.017Z,26.93
2022-09-16T14:11:30.047Z,26.90
2022-09-16T14:14:05.853Z,26.92
2022-09-16T14:16:34.566Z,26.91
2022-09-16T14:19:04.971Z,26.89
2022-09-16T14:21:32.334Z,26.84
2022-09-16T14:24:29.069Z,26.80
2022-09-16T14:26:57.391Z,26.80
2022-09-16T14:29:25.150Z,26.84
2022-09-16T14:31:53.556Z,26.84
2022-09-16T14:34:29.889Z,26.82
2022-09-16T14:36:57.224Z,26.86
2022-09-16T14:39:25.739Z,26.91
2022-09-16T14:41:55.235Z,26.96
2022-09-16T14:44:25.337Z,26.93
2022-09-16T14:47:04.639Z,26.96
2022-09-16T14:49:38.067Z,26.98
2022-09-16T14:52:05.216Z,26.99
2022-09-16T14:54:32.564Z,26.95
2022-09-16T14:57:06.855Z,26.94
2022-09-16T14:59:38.241Z,26.92
2022-09-16T15:02:15.989Z,26.92
2022-09-16T15:04:45.286Z,26.95
2022-09-16T15:07:18.323Z,26.94
2022-09-16T15:09:52.167Z,26.98
2022-09-16T15:12:22.401Z,27.00
2022-09-16T15:14:49.725Z,27.03
2022-09-16T15:17:19.020Z,27.06
2022-09-16T15:19:50.424Z,27.06
2022-09-16T15:22:17.959Z,27.06
2022-09-16T15:24:47.531Z,27.02
2022-09-16T15:27:21.151Z,27.00
2022-09-16T15:29:51.919Z,27.00
2022-09-16T15:32:21.060Z,27.04
2022-09-16T15:34:49.620Z,27.03
2022-09-16T15:37:28.607Z,27.04
2022-09-16T15:39:55.812Z,27.03
2022-09-16T15:42:26.076Z,27.02
2022-09-16T15:44:54.583Z,27.00
2022-09-16T15:47:23.965Z,27.00
2022-09-16T15:49:54.083Z,26.99
2022-09-16T15:52:23.179Z,26.97
2022-09-16T15:54:56.159Z,26.92
2022-09-16T15:57:23.281Z,26.87
2022-09-16T15:59:54.733Z,26.79
2022-09-16T16:02:40.577Z,26.74
2022-09-16T16:05:09.137Z,26.72
2022-09-16T16:07:49.562Z,26.69
2022-09-16T16:10:20.815Z,26.69
2022-09-16T16:12:49.329Z,26.66
2022-09-16T16:15:18.780Z,26.65
2022-09-16T16:17:47.069Z,26.63
2022-09-16T16:20:15.090Z,26.62
2022-09-16T16:22:46.445Z,26.62
2022-09-16T16:25:14.039Z,26.62
2022-09-16T16:27:41.320Z,26.61
2022-09-16T16:30:09.175Z,26.57
2022-09-16T16:32:38.798Z,26.59
2022-09-16T16:35:06.366Z,26.71
2022-09-16T16:37:45.958Z,26.72
2022-09-16T16:40:21.834Z,26.56
2022-09-16T16:42:49.005Z,26.40
2022-09-16T16:45:16.698Z,26.41
2022-09-16T16:47:44.464Z,26.38
2022-09-16T16:50:11.617Z,26.23
2022-09-16T16:52:39.069Z,26.17
2022-09-16T16:55:06.807Z,26.05
2022-09-16T16:57:34.016Z,25.86
2022-09-16T17:00:01.293Z,25.82
2022-09-16T17:02:28.598Z,25.87
2022-09-16T17:04:55.848Z,25.82
2022-09-16T17:07:27.621Z,25.76
2022-09-16T17:09:57.527Z,25.69
2022-09-16T17:12:25.326Z,25.63
2022-09-16T17:14:52.685Z,25.57
2022-09-16T17:17:19.926Z,25.52
2022-09-16T17:19:47.178Z,25.50
2022-09-16T17:22:14.493Z,25.56
2022-09-16T17:24:41.670Z,25.52
2022-09-16T17:27:08.790Z,25.52
2022-09-16T17:29:36.091Z,25.44
2022-09-16T17:32:03.471Z,25.40
2022-09-16T17:34:31.202Z,25.39
2022-09-16T17:36:58.708Z,25.28
2022-09-16T17:39:26.252Z,25.28
2022-09-16T17:41:56.557Z,25.26
2022-09-16T17:44:24.805Z,25.06
2022-09-16T17:46:51.919Z,25.02
2022-09-16T17:49:21.567Z,25.01
2022-09-16T17:51:49.528Z,25.04
2022-09-16T17:54:16.915Z,24.83
2022-09-16T17:56:44.515Z,24.70
2022-09-16T17:59:12.597Z,24.70
2022-09-16T18:01:40.209Z,24.63
2022-09-16T18:04:07.992Z,24.48
2022-09-16T18:06:39.773Z,24.52
2022-09-16T18:09:07.414Z,24.43
2022-09-16T18:11:35.672Z,24.38
2022-09-16T18:14:04.185Z,24.42
2022-09-16T18:16:31.836Z,24.33
2022-09-16T18:19:00.244Z,24.23
2022-09-16T18:21:27.810Z,24.22
2022-09-16T18:23:56.322Z,24.18
2022-09-16T18:26:24.047Z,24.17
2022-09-16T18:29:09.633Z,24.15
2022-09-16T18:31:39.147Z,24.11
2022-09-16T18:34:06.733Z,24.11
2022-09-16T18:36:35.231Z,24.11
2022-09-16T18:39:02.531Z,24.16
2022-09-16T18:41:31.797Z,24.13
2022-09-16T18:44:00.263Z,24.03
2022-09-16T18:46:31.715Z,23.99
2022-09-16T18:48:59.463Z,23.93
2022-09-16T18:51:37.121Z,23.83
2022-09-16T18:54:06.314Z,23.88
2022-09-16T18:56:34.649Z,23.83
2022-09-16T18:59:20.873Z,23.90
2022-09-16T19:01:50.484Z,23.91
2022-09-16T19:04:19.067Z,23.96
2022-09-16T19:06:48.658Z,23.83
2022-09-16T19:09:16.945Z,23.83
2022-09-16T19:11:44.262Z,23.61
2022-09-16T19:14:15.466Z,23.66
2022-09-16T19:16:43.615Z,23.60
2022-09-16T19:19:11.770Z,23.48
2022-09-16T19:21:39.290Z,23.40
2022-09-16T19:24:07.679Z,23.41
2022-09-16T19:26:36.257Z,23.38
2022-09-16T19:29:06.934Z,23.25
2022-09-16T19:31:35.320Z,23.22
2022-09-16T19:34:02.761Z,23.18
2022-09-16T19:36:30.762Z,23.18
2022-09-16T19:38:58.293Z,23.14
2022-09-16T19:41:27.819Z,23.01
2022-09-16T19:43:56.006Z,22.96
2022-09-16T19:46:23.953Z,22.95
2022-09-16T19:48:52.173Z,22.89
2022-09-16T19:51:20.530Z,22.76
2022-09-16T19:53:49.230Z,22.69
2022-09-16T19:56:18.479Z,22.63
2022-09-16T19:58:45.800Z,22.68
2022-09-16T20:01:14.748Z,22.63
2022-09-16T20:03:45.780Z,22.61
2022-09-16T20:06:14.485Z,22.53
2022-09-16T20:08:42.713Z,22.46
2022-09-16T20:11:14.457Z,22.49
2022-09-16T20:13:42.000Z,22.43
2022-09-16T20:16:09.994Z,22.44
2022-09-16T20:18:37.334Z,22.32
2022-09-16T20:21:05.810Z,22.19
2022-09-16T20:23:33.946Z,22.15
2022-09-16T20:26:02.334Z,22.17
2022-09-16T20:28:36.901Z,22.15
2022-09-16T20:31:04.866Z,22.07
2022-09-16T20:33:33.574Z,21.97
2022-09-16T20:36:10.854Z,21.93
2022-09-16T20:38:38.974Z,21.82
2022-09-16T20:41:07.309Z,21.69
2022-09-16T20:43:35.317Z,21.57
2022-09-16T20:46:05.395Z,21.64
2022-09-16T20:48:32.987Z,21.61
2022-09-16T20:51:04.380Z,21.62
2022-09-16T20:53:31.730Z,21.53
2022-09-16T20:56:06.489Z,21.71
2022-09-16T20:58:34.440Z,21.68
2022-09-16T21:01:07.891Z,21.60
2022-09-16T21:03:35.209Z,21.47
2022-09-16T21:06:06.605Z,21.38
2022-09-16T21:08:35.158Z,21.35
2022-09-16T21:11:11.551Z,21.20
2022-09-16T21:13:42.746Z,21.21
2022-09-16T21:16:11.717Z,21.26
2022-09-16T21:18:39.469Z,21.00
2022-09-16T21:21:06.729Z,20.99
2022-09-16T21:23:34.693Z,21.03
2022-09-16T21:26:12.408Z,21.00
2022-09-16T21:28:40.149Z,20.95
2022-09-16T21:31:10.623Z,20.93
2022-09-16T21:33:37.829Z,20.91
2022-09-16T21:36:05.901Z,20.89
2022-09-16T21:38:33.513Z,20.90
2022-09-16T21:41:02.366Z,20.89
2022-09-16T21:43:32.412Z,20.79
2022-09-16T21:46:00.454Z,20.80
2022-09-16T21:48:28.979Z,20.68
2022-09-16T21:51:01.165Z,20.69
2022-09-16T21:53:30.098Z,20.68
2022-09-16T21:56:07.260Z,20.70
2022-09-16T21:58:34.750Z,20.66
2022-09-16T22:01:14.497Z,20.45
2022-09-16T22:03:42.330Z,20.33
2022-09-16T22:06:10.602Z,20.35
2022-09-16T22:08:38.023Z,20.19
2022-09-16T22:11:09.856Z,20.18
2022-09-16T22:13:37.458Z,20.29
2022-09-16T22:16:06.648Z,20.30
2022-09-16T22:18:35.019Z,20.34
2022-09-16T22:21:03.380Z,20.25
2022-09-16T22:23:30.646Z,20.25
2022-09-16T22:25:57.837Z,20.17
2022-09-16T22:28:25.052Z,20.23
2022-09-16T22:30:52.339Z,20.26
2022-09-16T22:33:19.469Z,20.19
2022-09-16T22:35:46.617Z,20.10
2022-09-16T22:38:13.775Z,20.10
2022-09-16T22:40:40.988Z,20.18
2022-09-16T22:43:08.446Z,20.05
2022-09-16T22:45:35.734Z,20.04
2022-09-16T22:48:04.383Z,20.07
2022-09-16T22:50:31.758Z,20.04
2022-09-16T22:52:58.942Z,20.03
2022-09-16T22:55:26.682Z,19.97
2022-09-16T22:57:53.946Z,19.91
2022-09-16T23:00:21.129Z,20.00
2022-09-16T23:02:49.136Z,19.92
2022-09-16T23:05:16.346Z,19.88
2022-09-16T23:07:43.950Z,19.91
2022-09-16T23:10:11.721Z,20.07
2022-09-16T23:12:40.194Z,19.85
2022-09-16T23:15:09.113Z,19.87
2022-09-16T23:17:36.437Z,19.68
2022-09-16T23:20:03.705Z,19.49
2022-09-16T23:22:31.004Z,19.49
2022-09-16T23:24:58.684Z,19.49
2022-09-16T23:27:25.948Z,19.48
2022-09-16T23:29:53.087Z,19.24
2022-09-16T23:32:20.545Z,19.15
2022-09-16T23:34:47.876Z,19.10
2022-09-16T23:37:15.078Z,18.68
2022-09-16T23:39:42.245Z,17.91
2022-09-16T23:42:12.039Z,17.73
2022-09-16T23:44:39.166Z,17.68
2022-09-16T23:47:06.995Z,17.62
2022-09-16T23:49:34.118Z,17.61
2022-09-16T23:52:01.308Z,17.72
2022-09-16T23:54:28.441Z,17.84
2022-09-16T23:56:55.688Z,17.87
2022-09-16T23:59:22.821Z,17.89
